sensor_id;sensor_type;location;lat;lon;timestamp;pressure;altitude;pressure_sealevel;temperature;humidity
18988;BME280;5494;51.796;10.952;2023-07-24T00:02:14;98047.38;;;19.28;100.00
18988;BME280;5494;51.796;10.952;2023-07-24T00:04:42;98040.88;;;19.22;100.00
18988;BME280;5494;51.796;10.952;2023-07-24T00:07:14;98036.22;;;19.16;100.00
18988;BME280;5494;51.796;10.952;2023-07-24T00:09:42;98028.19;;;19.18;100.00
18988;BME280;5494;51.796;10.952;2023-07-24T00:12:12;98020.91;;;19.12;100.00
18988;BME280;5494;51.796;10.952;2023-07-24T00:14:41;98018.88;;;19.06;100.00
18988;BME280;5494;51.796;10.952;2023-07-24T00:17:09;98017.38;;;19.03;100.00
18988;BME280;5494;51.796;10.952;2023-07-24T00:19:39;98022.63;;;19.03;100.00
18988;BME280;5494;51.796;10.952;2023-07-24T00:22:07;98024.66;;;19.09;100.00
18988;BME280;5494;51.796;10.952;2023-07-24T00:24:35;98016.53;;;19.03;100.00
18988;BME280;5494;51.796;10.952;2023-07-24T00:27:04;98004.69;;;18.99;100.00
18988;BME280;5494;51.796;10.952;2023-07-24T00:29:32;98006.94;;;18.94;100.00
18988;BME280;5494;51.796;10.952;2023-07-24T00:32:00;97999.88;;;18.94;100.00
18988;BME280;5494;51.796;10.952;2023-07-24T00:34:28;97994.28;;;18.97;100.00
18988;BME280;5494;51.796;10.952;2023-07-24T00:36:57;97984.06;;;18.94;100.00
18988;BME280;5494;51.796;10.952;2023-07-24T00:39:25;97983.69;;;18.89;100.00
18988;BME280;5494;51.796;10.952;2023-07-24T00:41:56;97978.28;;;18.91;100.00
18988;BME280;5494;51.796;10.952;2023-07-24T00:44:25;97975.03;;;18.97;100.00
18988;BME280;5494;51.796;10.952;2023-07-24T00:46:54;97975.34;;;18.94;100.00
18988;BME280;5494;51.796;10.952;2023-07-24T00:49:24;97972.72;;;18.94;100.00
18988;BME280;5494;51.796;10.952;2023-07-24T00:51:53;97961.41;;;19.01;100.00
18988;BME280;5494;51.796;10.952;2023-07-24T00:54:23;97948.53;;;18.98;100.00
18988;BME280;5494;51.796;10.952;2023-07-24T00:56:51;97963.84;;;18.95;100.00
18988;BME280;5494;51.796;10.952;2023-07-24T00:59:20;97968.41;;;18.93;100.00
18988;BME280;5494;51.796;10.952;2023-07-24T01:01:49;97955.69;;;18.88;100.00
18988;BME280;5494;51.796;10.952;2023-07-24T01:04:18;97955.69;;;18.88;100.00
18988;BME280;5494;51.796;10.952;2023-07-24T01:06:47;97952.41;;;18.86;100.00
18988;BME280;5494;51.796;10.952;2023-07-24T01:09:15;97963.09;;;18.84;100.00
18988;BME280;5494;51.796;10.952;2023-07-24T01:11:51;97968.06;;;18.87;100.00
18988;BME280;5494;51.796;10.952;2023-07-24T01:14:36;97969.03;;;18.86;100.00
18988;BME280;5494;51.796;10.952;2023-07-24T01:17:08;97977.59;;;18.88;100.00
18988;BME280;5494;51.796;10.952;2023-07-24T01:19:41;97983.19;;;18.85;100.00
18988;BME280;5494;51.796;10.952;2023-07-24T01:22:25;97999.47;;;19.07;100.00
18988;BME280;5494;51.796;10.952;2023-07-24T01:25:10;98014.09;;;19.01;100.00
18988;BME280;5494;51.796;10.952;2023-07-24T01:27:45;98011.59;;;19.00;100.00
18988;BME280;5494;51.796;10.952;2023-07-24T01:30:18;98018.81;;;18.98;100.00
18988;BME280;5494;51.796;10.952;2023-07-24T01:32:47;98011.63;;;18.82;100.00
18988;BME280;5494;51.796;10.952;2023-07-24T01:35:16;98020.28;;;18.74;100.00
18988;BME280;5494;51.796;10.952;2023-07-24T01:37:46;98025.19;;;18.69;100.00
18988;BME280;5494;51.796;10.952;2023-07-24T01:40:16;98017.75;;;18.65;100.00
18988;BME280;5494;51.796;10.952;2023-07-24T01:42:48;98017.22;;;18.61;100.00
18988;BME280;5494;51.796;10.952;2023-07-24T01:45:16;98020.56;;;18.54;100.00
18988;BME280;5494;51.796;10.952;2023-07-24T01:47:44;98023.06;;;18.55;100.00
18988;BME280;5494;51.796;10.952;2023-07-24T01:50:13;98021.50;;;18.62;100.00
18988;BME280;5494;51.796;10.952;2023-07-24T01:52:42;98035.34;;;18.64;100.00
18988;BME280;5494;51.796;10.952;2023-07-24T01:55:11;98017.06;;;18.45;100.00
18988;BME280;5494;51.796;10.952;2023-07-24T01:57:39;98041.91;;;18.33;100.00
18988;BME280;5494;51.796;10.952;2023-07-24T02:00:11;98035.41;;;18.37;100.00
18988;BME280;5494;51.796;10.952;2023-07-24T02:02:39;98041.72;;;18.44;100.00
18988;BME280;5494;51.796;10.952;2023-07-24T02:05:08;98038.03;;;18.37;100.00
18988;BME280;5494;51.796;10.952;2023-07-24T02:07:36;98035.41;;;18.37;100.00
18988;BME280;5494;51.796;10.952;2023-07-24T02:10:06;98037.88;;;18.38;100.00
18988;BME280;5494;51.796;10.952;2023-07-24T02:12:34;98036.00;;;18.31;100.00
18988;BME280;5494;51.796;10.952;2023-07-24T02:15:03;98040.19;;;18.24;100.00
18988;BME280;5494;51.796;10.952;2023-07-24T02:17:32;98042.06;;;18.14;100.00
18988;BME280;5494;51.796;10.952;2023-07-24T02:20:01;98041.47;;;18.20;100.00
18988;BME280;5494;51.796;10.952;2023-07-24T02:22:29;98042.28;;;18.20;100.00
18988;BME280;5494;51.796;10.952;2023-07-24T02:24:57;98038.53;;;18.23;100.00
18988;BME280;5494;51.796;10.952;2023-07-24T02:27:29;98035.16;;;18.30;100.00
18988;BME280;5494;51.796;10.952;2023-07-24T02:29:58;98038.84;;;18.37;100.00
18988;BME280;5494;51.796;10.952;2023-07-24T02:32:26;98026.53;;;18.38;100.00
18988;BME280;5494;51.796;10.952;2023-07-24T02:34:57;98022.94;;;18.39;100.00
18988;BME280;5494;51.796;10.952;2023-07-24T02:37:25;98020.72;;;18.34;100.00
18988;BME280;5494;51.796;10.952;2023-07-24T02:39:53;98024.78;;;18.29;100.00
18988;BME280;5494;51.796;10.952;2023-07-24T02:42:21;98016.22;;;18.27;100.00
18988;BME280;5494;51.796;10.952;2023-07-24T02:44:50;98013.13;;;18.49;100.00
18988;BME280;5494;51.796;10.952;2023-07-24T02:47:21;98013.06;;;18.41;100.00
18988;BME280;5494;51.796;10.952;2023-07-24T02:49:49;98018.41;;;18.49;100.00
18988;BME280;5494;51.796;10.952;2023-07-24T02:52:18;98008.75;;;18.40;100.00
18988;BME280;5494;51.796;10.952;2023-07-24T02:54:47;97998.19;;;18.32;100.00
18988;BME280;5494;51.796;10.952;2023-07-24T02:57:15;98003.34;;;18.41;100.00
18988;BME280;5494;51.796;10.952;2023-07-24T02:59:43;98001.50;;;18.52;100.00
18988;BME280;5494;51.796;10.952;2023-07-24T03:02:11;98001.91;;;18.47;100.00
18988;BME280;5494;51.796;10.952;2023-07-24T03:04:39;98011.34;;;18.32;100.00
18988;BME280;5494;51.796;10.952;2023-07-24T03:07:07;98007.13;;;18.39;100.00
18988;BME280;5494;51.796;10.952;2023-07-24T03:09:37;98007.19;;;18.47;100.00
18988;BME280;5494;51.796;10.952;2023-07-24T03:12:06;98002.72;;;18.57;100.00
18988;BME280;5494;51.796;10.952;2023-07-24T03:14:34;98003.69;;;18.56;100.00
18988;BME280;5494;51.796;10.952;2023-07-24T03:17:03;98001.28;;;18.45;100.00
18988;BME280;5494;51.796;10.952;2023-07-24T03:19:31;97997.13;;;18.42;100.00
18988;BME280;5494;51.796;10.952;2023-07-24T03:22:00;97994.72;;;18.49;100.00
18988;BME280;5494;51.796;10.952;2023-07-24T03:24:28;97997.50;;;18.47;100.00
18988;BME280;5494;51.796;10.952;2023-07-24T03:26:57;97994.56;;;18.33;100.00
18988;BME280;5494;51.796;10.952;2023-07-24T03:29:27;97993.44;;;18.18;100.00
18988;BME280;5494;51.796;10.952;2023-07-24T03:31:55;97996.13;;;18.26;100.00
18988;BME280;5494;51.796;10.952;2023-07-24T03:34:25;97994.28;;;18.18;100.00
18988;BME280;5494;51.796;10.952;2023-07-24T03:36:53;98008.91;;;18.21;100.00
18988;BME280;5494;51.796;10.952;2023-07-24T03:39:21;98006.44;;;18.37;100.00
18988;BME280;5494;51.796;10.952;2023-07-24T03:41:49;98010.44;;;18.23;100.00
18988;BME280;5494;51.796;10.952;2023-07-24T03:44:18;98003.88;;;18.27;100.00
18988;BME280;5494;51.796;10.952;2023-07-24T03:46:46;98003.66;;;18.21;100.00
18988;BME280;5494;51.796;10.952;2023-07-24T03:49:15;98007.56;;;18.17;100.00
18988;BME280;5494;51.796;10.952;2023-07-24T03:51:43;98007.56;;;18.17;100.00
18988;BME280;5494;51.796;10.952;2023-07-24T03:54:11;97999.53;;;18.36;100.00
18988;BME280;5494;51.796;10.952;2023-07-24T03:56:39;98003.28;;;18.33;100.00
18988;BME280;5494;51.796;10.952;2023-07-24T03:59:08;97999.81;;;18.33;100.00
18988;BME280;5494;51.796;10.952;2023-07-24T04:01:38;97997.13;;;18.25;100.00
18988;BME280;5494;51.796;10.952;2023-07-24T04:04:06;98002.75;;;18.30;100.00
18988;BME280;5494;51.796;10.952;2023-07-24T04:06:34;97998.63;;;18.45;100.00
18988;BME280;5494;51.796;10.952;2023-07-24T04:09:02;97994.72;;;18.49;100.00
18988;BME280;5494;51.796;10.952;2023-07-24T04:11:30;97991.25;;;18.48;100.00
18988;BME280;5494;51.796;10.952;2023-07-24T04:13:59;97986.09;;;18.57;100.00
18988;BME280;5494;51.796;10.952;2023-07-24T04:16:27;97979.28;;;18.54;100.00
18988;BME280;5494;51.796;10.952;2023-07-24T04:18:58;97973.44;;;18.60;100.00
18988;BME280;5494;51.796;10.952;2023-07-24T04:21:26;97981.72;;;18.65;100.00
18988;BME280;5494;51.796;10.952;2023-07-24T04:23:53;97969.34;;;18.83;100.00
18988;BME280;5494;51.796;10.952;2023-07-24T04:26:22;97964.78;;;19.19;100.00
18988;BME280;5494;51.796;10.952;2023-07-24T04:28:50;97952.66;;;19.69;100.00
18988;BME280;5494;51.796;10.952;2023-07-24T04:31:19;97941.38;;;20.09;100.00
18988;BME280;5494;51.796;10.952;2023-07-24T04:33:47;97936.16;;;20.33;100.00
18988;BME280;5494;51.796;10.952;2023-07-24T04:36:16;97932.03;;;20.47;100.00
18988;BME280;5494;51.796;10.952;2023-07-24T04:38:44;97934.69;;;20.47;100.00
18988;BME280;5494;51.796;10.952;2023-07-24T04:41:14;97948.50;;;20.32;100.00
18988;BME280;5494;51.796;10.952;2023-07-24T04:43:42;97942.41;;;20.56;100.00
18988;BME280;5494;51.796;10.952;2023-07-24T04:46:13;97940.41;;;20.26;100.00
18988;BME280;5494;51.796;10.952;2023-07-24T04:48:41;97940.88;;;19.97;100.00
18988;BME280;5494;51.796;10.952;2023-07-24T04:51:09;97944.44;;;19.80;100.00
18988;BME280;5494;51.796;10.952;2023-07-24T04:53:39;97944.78;;;19.85;100.00
18988;BME280;5494;51.796;10.952;2023-07-24T04:56:07;97936.84;;;19.69;100.00
18988;BME280;5494;51.796;10.952;2023-07-24T04:58:37;97928.13;;;19.76;100.00
18988;BME280;5494;51.796;10.952;2023-07-24T05:01:05;97919.41;;;19.84;100.00
18988;BME280;5494;51.796;10.952;2023-07-24T05:03:33;97916.00;;;20.16;100.00
18988;BME280;5494;51.796;10.952;2023-07-24T05:06:01;97916.16;;;20.79;100.00
18988;BME280;5494;51.796;10.952;2023-07-24T05:08:29;97919.66;;;21.66;96.10
18988;BME280;5494;51.796;10.952;2023-07-24T05:10:59;97916.13;;;22.12;88.59
18988;BME280;5494;51.796;10.952;2023-07-24T05:13:27;97912.09;;;22.16;85.82
18988;BME280;5494;51.796;10.952;2023-07-24T05:15:55;97913.75;;;21.64;89.33
18988;BME280;5494;51.796;10.952;2023-07-24T05:18:23;97915.34;;;21.42;90.37
18988;BME280;5494;51.796;10.952;2023-07-24T05:20:51;97913.13;;;20.98;95.03
18988;BME280;5494;51.796;10.952;2023-07-24T05:23:20;97909.56;;;21.69;94.39
18988;BME280;5494;51.796;10.952;2023-07-24T05:25:56;97899.78;;;22.00;88.63
18988;BME280;5494;51.796;10.952;2023-07-24T05:28:27;97905.66;;;21.88;86.39
18988;BME280;5494;51.796;10.952;2023-07-24T05:30:59;97895.31;;;22.24;84.82
18988;BME280;5494;51.796;10.952;2023-07-24T05:33:28;97894.47;;;22.98;78.38
18988;BME280;5494;51.796;10.952;2023-07-24T05:35:58;97900.50;;;22.92;77.73
18988;BME280;5494;51.796;10.952;2023-07-24T05:38:27;97896.31;;;23.27;77.58
18988;BME280;5494;51.796;10.952;2023-07-24T05:40:56;97895.72;;;23.97;71.46
18988;BME280;5494;51.796;10.952;2023-07-24T05:43:24;97881.69;;;24.03;69.58
18988;BME280;5494;51.796;10.952;2023-07-24T05:45:55;97883.81;;;23.93;69.06
18988;BME280;5494;51.796;10.952;2023-07-24T05:48:25;97882.72;;;23.66;69.74
18988;BME280;5494;51.796;10.952;2023-07-24T05:50:53;97878.22;;;23.67;70.04
18988;BME280;5494;51.796;10.952;2023-07-24T05:53:21;97872.03;;;23.60;70.93
18988;BME280;5494;51.796;10.952;2023-07-24T05:55:58;97865.81;;;23.52;70.57
18988;BME280;5494;51.796;10.952;2023-07-24T05:58:27;97864.38;;;23.50;70.75
18988;BME280;5494;51.796;10.952;2023-07-24T06:00:56;97856.94;;;23.81;69.64
18988;BME280;5494;51.796;10.952;2023-07-24T06:03:25;97861.28;;;24.81;63.55
18988;BME280;5494;51.796;10.952;2023-07-24T06:05:54;97863.31;;;24.51;63.90
18988;BME280;5494;51.796;10.952;2023-07-24T06:08:22;97852.72;;;23.87;66.33
18988;BME280;5494;51.796;10.952;2023-07-24T06:10:51;97855.50;;;23.28;69.42
18988;BME280;5494;51.796;10.952;2023-07-24T06:13:19;97862.31;;;22.87;72.27
18988;BME280;5494;51.796;10.952;2023-07-24T06:15:49;97863.94;;;22.73;74.16
18988;BME280;5494;51.796;10.952;2023-07-24T06:18:19;97856.03;;;22.65;73.99
18988;BME280;5494;51.796;10.952;2023-07-24T06:20:47;97850.25;;;22.32;77.21
18988;BME280;5494;51.796;10.952;2023-07-24T06:23:19;97852.97;;;22.24;78.56
18988;BME280;5494;51.796;10.952;2023-07-24T06:25:48;97848.31;;;22.26;78.33
18988;BME280;5494;51.796;10.952;2023-07-24T06:28:16;97844.44;;;22.14;79.81
18988;BME280;5494;51.796;10.952;2023-07-24T06:30:44;97836.94;;;21.94;80.75
18988;BME280;5494;51.796;10.952;2023-07-24T06:33:12;97824.50;;;22.03;80.40
18988;BME280;5494;51.796;10.952;2023-07-24T06:35:42;97815.25;;;22.22;79.09
18988;BME280;5494;51.796;10.952;2023-07-24T06:38:10;97815.31;;;22.14;80.26
18988;BME280;5494;51.796;10.952;2023-07-24T06:40:38;97831.13;;;22.22;78.76
18988;BME280;5494;51.796;10.952;2023-07-24T06:43:06;97822.16;;;22.08;80.54
18988;BME280;5494;51.796;10.952;2023-07-24T06:45:34;97826.63;;;22.08;81.14
18988;BME280;5494;51.796;10.952;2023-07-24T06:48:03;97831.34;;;21.97;80.44
18988;BME280;5494;51.796;10.952;2023-07-24T06:50:34;97832.03;;;21.91;81.45
18988;BME280;5494;51.796;10.952;2023-07-24T06:53:03;97830.72;;;21.87;81.50
18988;BME280;5494;51.796;10.952;2023-07-24T06:55:32;97833.63;;;21.78;81.67
18988;BME280;5494;51.796;10.952;2023-07-24T06:58:00;97824.75;;;21.71;81.94
18988;BME280;5494;51.796;10.952;2023-07-24T07:00:28;97827.78;;;21.59;83.28
18988;BME280;5494;51.796;10.952;2023-07-24T07:02:57;97829.31;;;21.77;82.24
18988;BME280;5494;51.796;10.952;2023-07-24T07:05:25;97839.47;;;21.65;83.02
18988;BME280;5494;51.796;10.952;2023-07-24T07:07:53;97843.28;;;21.85;80.95
18988;BME280;5494;51.796;10.952;2023-07-24T07:10:23;97829.56;;;21.90;80.90
18988;BME280;5494;51.796;10.952;2023-07-24T07:12:51;97835.13;;;21.95;80.95
18988;BME280;5494;51.796;10.952;2023-07-24T07:15:19;97837.25;;;21.99;80.92
18988;BME280;5494;51.796;10.952;2023-07-24T07:17:47;97827.72;;;21.98;80.13
18988;BME280;5494;51.796;10.952;2023-07-24T07:20:16;97816.56;;;22.03;78.33
18988;BME280;5494;51.796;10.952;2023-07-24T07:22:44;97835.03;;;22.11;78.10
18988;BME280;5494;51.796;10.952;2023-07-24T07:25:12;97819.44;;;22.16;77.36
18988;BME280;5494;51.796;10.952;2023-07-24T07:27:42;97825.69;;;22.38;75.55
18988;BME280;5494;51.796;10.952;2023-07-24T07:30:11;97820.47;;;22.30;76.40
18988;BME280;5494;51.796;10.952;2023-07-24T07:32:39;97821.84;;;22.40;75.99
18988;BME280;5494;51.796;10.952;2023-07-24T07:35:08;97814.88;;;22.92;73.88
18988;BME280;5494;51.796;10.952;2023-07-24T07:37:36;97814.75;;;23.14;70.74
18988;BME280;5494;51.796;10.952;2023-07-24T07:40:06;97806.69;;;23.59;68.81
18988;BME280;5494;51.796;10.952;2023-07-24T07:42:34;97796.16;;;24.14;64.99
18988;BME280;5494;51.796;10.952;2023-07-24T07:45:08;97788.34;;;24.96;62.13
18988;BME280;5494;51.796;10.952;2023-07-24T07:47:36;97799.41;;;25.54;58.67
18988;BME280;5494;51.796;10.952;2023-07-24T07:50:05;97807.31;;;26.48;55.95
18988;BME280;5494;51.796;10.952;2023-07-24T07:52:33;97802.56;;;27.27;51.06
18988;BME280;5494;51.796;10.952;2023-07-24T07:55:02;97783.34;;;27.57;49.43
18988;BME280;5494;51.796;10.952;2023-07-24T07:57:30;97786.19;;;27.93;48.17
18988;BME280;5494;51.796;10.952;2023-07-24T07:59:58;97783.19;;;28.33;47.36
18988;BME280;5494;51.796;10.952;2023-07-24T08:02:27;97792.44;;;28.73;45.95
18988;BME280;5494;51.796;10.952;2023-07-24T08:04:56;97794.66;;;28.83;45.27
18988;BME280;5494;51.796;10.952;2023-07-24T08:07:31;97790.53;;;29.17;44.51
18988;BME280;5494;51.796;10.952;2023-07-24T08:09:59;97793.16;;;29.53;43.21
18988;BME280;5494;51.796;10.952;2023-07-24T08:12:28;97792.09;;;29.06;42.93
18988;BME280;5494;51.796;10.952;2023-07-24T08:14:56;97780.66;;;29.17;43.08
18988;BME280;5494;51.796;10.952;2023-07-24T08:17:25;97781.00;;;29.21;43.38
18988;BME280;5494;51.796;10.952;2023-07-24T08:19:54;97780.28;;;29.14;43.56
18988;BME280;5494;51.796;10.952;2023-07-24T08:22:22;97763.38;;;29.61;43.04
18988;BME280;5494;51.796;10.952;2023-07-24T08:24:51;97772.47;;;30.13;42.35
18988;BME280;5494;51.796;10.952;2023-07-24T08:27:23;97773.34;;;29.84;40.97
18988;BME280;5494;51.796;10.952;2023-07-24T08:29:51;97769.34;;;29.75;42.08
18988;BME280;5494;51.796;10.952;2023-07-24T08:32:20;97761.72;;;28.82;42.57
18988;BME280;5494;51.796;10.952;2023-07-24T08:34:48;97761.09;;;29.17;42.86
18988;BME280;5494;51.796;10.952;2023-07-24T08:37:17;97757.50;;;29.53;42.44
18988;BME280;5494;51.796;10.952;2023-07-24T08:39:45;97751.63;;;30.27;40.69
18988;BME280;5494;51.796;10.952;2023-07-24T08:42:14;97759.81;;;30.56;40.84
18988;BME280;5494;51.796;10.952;2023-07-24T08:44:43;97751.69;;;30.79;38.97
18988;BME280;5494;51.796;10.952;2023-07-24T08:47:11;97746.78;;;31.27;38.43
18988;BME280;5494;51.796;10.952;2023-07-24T08:49:42;97756.84;;;30.22;38.45
18988;BME280;5494;51.796;10.952;2023-07-24T08:52:11;97744.91;;;29.83;40.67
18988;BME280;5494;51.796;10.952;2023-07-24T08:55:00;97764.84;;;29.46;40.79
18988;BME280;5494;51.796;10.952;2023-07-24T08:57:30;97758.31;;;29.23;40.94
18988;BME280;5494;51.796;10.952;2023-07-24T08:59:58;97753.78;;;28.51;42.16
18988;BME280;5494;51.796;10.952;2023-07-24T09:02:32;97755.03;;;28.05;43.54
18988;BME280;5494;51.796;10.952;2023-07-24T09:05:01;97747.75;;;28.37;43.75
18988;BME280;5494;51.796;10.952;2023-07-24T09:07:30;97749.81;;;28.17;43.23
18988;BME280;5494;51.796;10.952;2023-07-24T09:10:00;97738.72;;;28.38;42.92
18988;BME280;5494;51.796;10.952;2023-07-24T09:12:28;97743.56;;;28.66;41.75
18988;BME280;5494;51.796;10.952;2023-07-24T09:15:03;97739.56;;;28.93;41.72
18988;BME280;5494;51.796;10.952;2023-07-24T09:17:34;97727.31;;;29.16;40.85
18988;BME280;5494;51.796;10.952;2023-07-24T09:20:03;97731.16;;;29.20;41.38
18988;BME280;5494;51.796;10.952;2023-07-24T09:22:31;97733.25;;;29.36;40.69
18988;BME280;5494;51.796;10.952;2023-07-24T09:25:02;97729.28;;;29.09;40.53
18988;BME280;5494;51.796;10.952;2023-07-24T09:27:32;97735.44;;;29.09;40.00
18988;BME280;5494;51.796;10.952;2023-07-24T09:30:01;97728.41;;;28.96;40.65
18988;BME280;5494;51.796;10.952;2023-07-24T09:32:30;97728.06;;;29.23;39.83
18988;BME280;5494;51.796;10.952;2023-07-24T09:34:58;97738.53;;;29.54;39.71
18988;BME280;5494;51.796;10.952;2023-07-24T09:37:30;97727.50;;;29.74;39.24
18988;BME280;5494;51.796;10.952;2023-07-24T09:39:59;97726.19;;;30.18;38.08
18988;BME280;5494;51.796;10.952;2023-07-24T09:42:34;97729.53;;;29.37;40.17
18988;BME280;5494;51.796;10.952;2023-07-24T09:45:19;97721.19;;;29.27;40.02
18988;BME280;5494;51.796;10.952;2023-07-24T09:47:50;97724.97;;;29.08;40.95
18988;BME280;5494;51.796;10.952;2023-07-24T09:50:26;97735.97;;;29.48;41.15
18988;BME280;5494;51.796;10.952;2023-07-24T09:52:56;97710.06;;;29.12;40.48
18988;BME280;5494;51.796;10.952;2023-07-24T09:55:30;97714.22;;;28.78;41.02
18988;BME280;5494;51.796;10.952;2023-07-24T09:58:04;97720.34;;;29.15;41.20
18988;BME280;5494;51.796;10.952;2023-07-24T10:00:34;97708.84;;;29.67;39.77
18988;BME280;5494;51.796;10.952;2023-07-24T10:03:02;97703.69;;;30.07;38.43
18988;BME280;5494;51.796;10.952;2023-07-24T10:05:32;97720.78;;;29.71;39.13
18988;BME280;5494;51.796;10.952;2023-07-24T10:08:00;97703.44;;;29.86;39.21
18988;BME280;5494;51.796;10.952;2023-07-24T10:10:30;97713.47;;;30.37;39.03
18988;BME280;5494;51.796;10.952;2023-07-24T10:12:59;97711.38;;;30.15;38.14
18988;BME280;5494;51.796;10.952;2023-07-24T10:15:29;97706.81;;;30.16;37.03
18988;BME280;5494;51.796;10.952;2023-07-24T10:18:02;97708.13;;;30.25;37.33
18988;BME280;5494;51.796;10.952;2023-07-24T10:20:34;97707.69;;;30.80;36.37
18988;BME280;5494;51.796;10.952;2023-07-24T10:23:03;97707.19;;;30.95;35.95
18988;BME280;5494;51.796;10.952;2023-07-24T10:25:34;97711.81;;;30.99;35.93
18988;BME280;5494;51.796;10.952;2023-07-24T10:28:04;97694.22;;;30.51;36.49
18988;BME280;5494;51.796;10.952;2023-07-24T10:30:36;97699.25;;;30.25;37.25
18988;BME280;5494;51.796;10.952;2023-07-24T10:33:10;97699.38;;;30.18;37.63
18988;BME280;5494;51.796;10.952;2023-07-24T10:35:44;97691.41;;;29.76;37.92
18988;BME280;5494;51.796;10.952;2023-07-24T10:38:15;97684.16;;;29.24;38.67
18988;BME280;5494;51.796;10.952;2023-07-24T10:40:46;97687.03;;;29.11;38.92
18988;BME280;5494;51.796;10.952;2023-07-24T10:43:19;97676.34;;;28.92;39.97
18988;BME280;5494;51.796;10.952;2023-07-24T10:45:51;97674.69;;;29.40;38.96
18988;BME280;5494;51.796;10.952;2023-07-24T10:48:22;97668.06;;;29.54;38.79
18988;BME280;5494;51.796;10.952;2023-07-24T10:50:51;97675.50;;;29.93;38.42
18988;BME280;5494;51.796;10.952;2023-07-24T10:53:23;97661.09;;;29.88;38.17
18988;BME280;5494;51.796;10.952;2023-07-24T10:55:51;97650.03;;;29.61;37.93
18988;BME280;5494;51.796;10.952;2023-07-24T10:58:19;97655.16;;;29.21;38.46
18988;BME280;5494;51.796;10.952;2023-07-24T11:00:49;97661.59;;;28.90;39.83
18988;BME280;5494;51.796;10.952;2023-07-24T11:03:17;97658.09;;;28.89;39.10
18988;BME280;5494;51.796;10.952;2023-07-24T11:05:47;97668.06;;;28.82;39.10
18988;BME280;5494;51.796;10.952;2023-07-24T11:08:17;97651.56;;;28.67;39.09
18988;BME280;5494;51.796;10.952;2023-07-24T11:10:47;97662.13;;;28.62;39.19
18988;BME280;5494;51.796;10.952;2023-07-24T11:13:16;97680.53;;;28.70;39.88
18988;BME280;5494;51.796;10.952;2023-07-24T11:15:45;97675.28;;;28.27;40.65
18988;BME280;5494;51.796;10.952;2023-07-24T11:18:16;97672.81;;;28.26;40.84
18988;BME280;5494;51.796;10.952;2023-07-24T11:20:46;97670.66;;;28.16;41.02
18988;BME280;5494;51.796;10.952;2023-07-24T11:23:15;97674.38;;;27.90;40.96
18988;BME280;5494;51.796;10.952;2023-07-24T11:25:44;97671.63;;;27.47;42.22
18988;BME280;5494;51.796;10.952;2023-07-24T11:28:14;97682.63;;;27.32;43.11
18988;BME280;5494;51.796;10.952;2023-07-24T11:30:43;97670.69;;;27.35;43.17
18988;BME280;5494;51.796;10.952;2023-07-24T11:33:16;97670.47;;;27.36;42.92
18988;BME280;5494;51.796;10.952;2023-07-24T11:35:46;97672.00;;;27.57;42.96
18988;BME280;5494;51.796;10.952;2023-07-24T11:38:16;97671.25;;;27.43;43.53
18988;BME280;5494;51.796;10.952;2023-07-24T11:40:44;97671.22;;;27.75;42.87
18988;BME280;5494;51.796;10.952;2023-07-24T11:43:17;97657.22;;;27.79;41.96
18988;BME280;5494;51.796;10.952;2023-07-24T11:45:47;97654.72;;;28.03;42.12
18988;BME280;5494;51.796;10.952;2023-07-24T11:48:17;97670.63;;;27.98;42.76
18988;BME280;5494;51.796;10.952;2023-07-24T11:50:48;97665.34;;;27.66;42.64
18988;BME280;5494;51.796;10.952;2023-07-24T11:53:24;97655.78;;;27.59;41.78
18988;BME280;5494;51.796;10.952;2023-07-24T11:55:55;97657.44;;;27.53;42.55
18988;BME280;5494;51.796;10.952;2023-07-24T11:58:26;97654.72;;;27.28;43.54
18988;BME280;5494;51.796;10.952;2023-07-24T12:00:55;97655.88;;;27.08;44.24
18988;BME280;5494;51.796;10.952;2023-07-24T12:03:28;97656.88;;;26.75;44.73
18988;BME280;5494;51.796;10.952;2023-07-24T12:05:56;97656.00;;;26.30;46.52
18988;BME280;5494;51.796;10.952;2023-07-24T12:08:31;97652.59;;;25.97;49.76
18988;BME280;5494;51.796;10.952;2023-07-24T12:10:59;97640.09;;;25.91;48.48
18988;BME280;5494;51.796;10.952;2023-07-24T12:13:28;97632.72;;;25.99;49.35
18988;BME280;5494;51.796;10.952;2023-07-24T12:15:58;97632.25;;;26.15;48.10
18988;BME280;5494;51.796;10.952;2023-07-24T12:18:27;97622.84;;;26.06;48.56
18988;BME280;5494;51.796;10.952;2023-07-24T12:20:55;97632.88;;;26.11;48.72
18988;BME280;5494;51.796;10.952;2023-07-24T12:23:24;97631.41;;;26.28;48.18
18988;BME280;5494;51.796;10.952;2023-07-24T12:25:52;97627.66;;;26.42;47.71
18988;BME280;5494;51.796;10.952;2023-07-24T12:28:20;97609.84;;;26.81;47.03
18988;BME280;5494;51.796;10.952;2023-07-24T12:30:48;97596.72;;;27.42;46.23
18988;BME280;5494;51.796;10.952;2023-07-24T12:33:16;97589.31;;;27.69;44.81
18988;BME280;5494;51.796;10.952;2023-07-24T12:35:46;97594.09;;;28.21;43.54
18988;BME280;5494;51.796;10.952;2023-07-24T12:38:14;97590.38;;;28.71;42.08
18988;BME280;5494;51.796;10.952;2023-07-24T12:40:42;97585.16;;;28.94;42.45
18988;BME280;5494;51.796;10.952;2023-07-24T12:43:10;97588.00;;;29.11;42.74
18988;BME280;5494;51.796;10.952;2023-07-24T12:45:38;97592.72;;;28.97;41.58
18988;BME280;5494;51.796;10.952;2023-07-24T12:48:06;97593.06;;;28.41;43.13
18988;BME280;5494;51.796;10.952;2023-07-24T12:50:34;97583.03;;;28.66;42.71
18988;BME280;5494;51.796;10.952;2023-07-24T12:53:04;97587.66;;;28.59;41.71
18988;BME280;5494;51.796;10.952;2023-07-24T12:55:35;97592.19;;;28.58;42.54
18988;BME280;5494;51.796;10.952;2023-07-24T12:58:04;97577.25;;;28.69;41.50
18988;BME280;5494;51.796;10.952;2023-07-24T13:00:32;97571.53;;;28.66;41.80
18988;BME280;5494;51.796;10.952;2023-07-24T13:03:00;97570.59;;;28.60;42.11
18988;BME280;5494;51.796;10.952;2023-07-24T13:05:28;97567.72;;;28.43;42.35
18988;BME280;5494;51.796;10.952;2023-07-24T13:07:57;97560.84;;;28.17;42.90